createdAt,value
2022-08-22T00:01:43.957Z,96180.34
2022-08-22T00:02:43.756Z,96182.18
2022-08-22T00:02:53.747Z,96188.91
2022-08-22T00:03:00.234Z,96187.70
2022-08-22T00:03:10.012Z,96160.17
2022-08-22T00:03:10.898Z,96160.58
2022-08-22T00:03:11.472Z,96172.91
2022-08-22T00:04:43.036Z,96181.27
2022-08-22T00:07:50.838Z,96179.25
2022-08-22T00:13:30.214Z,96179.02
2022-08-22T00:19:30.104Z,96173.36
2022-08-22T00:22:19.764Z,96177.75
2022-08-22T00:25:25.815Z,96178.86
2022-08-22T00:28:02.265Z,96177.19
2022-08-22T00:30:34.430Z,96175.86
2022-08-22T00:36:25.567Z,96171.10
2022-08-22T00:39:07.903Z,96168.24
2022-08-22T00:41:54.098Z,96171.28
2022-08-22T00:44:39.787Z,96168.12
2022-08-22T00:47:20.693Z,96164.35
2022-08-22T00:50:14.951Z,96164.30
2022-08-22T00:52:58.191Z,96170.16
2022-08-22T00:56:19.556Z,96174.60
2022-08-22T00:59:36.165Z,96177.07
2022-08-22T01:02:52.722Z,96173.14
2022-08-22T01:06:10.380Z,96171.04
2022-08-22T01:08:51.203Z,96173.13
2022-08-22T01:12:01.490Z,96182.73
2022-08-22T01:14:35.137Z,96190.33
2022-08-22T01:17:36.559Z,96195.81
2022-08-22T01:20:24.163Z,96208.29
2022-08-22T01:23:22.941Z,96219.71
2022-08-22T01:26:20.229Z,96214.55
2022-08-22T01:29:32.562Z,96201.23
2022-08-22T01:32:45.351Z,96194.95
2022-08-22T01:35:51.725Z,96192.31
2022-08-22T01:38:44.263Z,96187.23
2022-08-22T01:41:38.595Z,96193.77
2022-08-22T01:44:38.935Z,96195.85
2022-08-22T01:50:20.851Z,96195.84
2022-08-22T01:52:50.090Z,96193.79
2022-08-22T01:55:34.445Z,96188.07
2022-08-22T01:58:31.162Z,96188.41
2022-08-22T02:01:16.253Z,96183.83
2022-08-22T02:06:57.721Z,96173.36
2022-08-22T02:10:40.755Z,96171.05
2022-08-22T02:16:37.974Z,96171.48
2022-08-22T02:19:31.274Z,96179.02
2022-08-22T02:22:32.721Z,96174.50
2022-08-22T02:25:13.664Z,96171.75
2022-08-22T02:28:03.096Z,96177.79
2022-08-22T02:31:02.919Z,96181.03
2022-08-22T02:33:56.458Z,96181.90
2022-08-22T02:36:51.649Z,96178.67
2022-08-22T02:39:32.268Z,96175.33
2022-08-22T02:42:19.142Z,96181.59
2022-08-22T02:44:57.601Z,96177.88
2022-08-22T02:47:33.156Z,96182.24
2022-08-22T02:50:23.623Z,96186.86
2022-08-22T02:53:07.109Z,96186.05
2022-08-22T02:55:56.599Z,96182.74
2022-08-22T02:58:45.207Z,96187.27
2022-08-22T03:01:27.886Z,96195.52
2022-08-22T03:04:25.072Z,96198.16
2022-08-22T03:07:14.808Z,96195.14
2022-08-22T03:10:01.257Z,96194.36
2022-08-22T03:12:59.881Z,96199.33
2022-08-22T03:15:49.504Z,96202.36
2022-08-22T03:18:45.164Z,96203.99
2022-08-22T03:21:43.177Z,96202.33
2022-08-22T03:24:31.476Z,96202.12
2022-08-22T03:27:27.793Z,96208.06
2022-08-22T03:30:16.287Z,96210.76
2022-08-22T03:35:45.789Z,96213.35
2022-08-22T03:38:31.337Z,96210.45
2022-08-22T03:41:27.560Z,96204.98
2022-08-22T03:44:35.082Z,96211.21
2022-08-22T03:47:45.900Z,96211.45
2022-08-22T03:50:34.616Z,96214.63
2022-08-22T03:53:34.063Z,96215.66
2022-08-22T03:56:37.761Z,96219.86
2022-08-22T03:59:25.145Z,96225.66
2022-08-22T04:02:33.370Z,96220.11
2022-08-22T04:05:23.562Z,96213.20
2022-08-22T04:08:17.226Z,96213.61
2022-08-22T04:11:26.277Z,96212.39
2022-08-22T04:14:23.833Z,96209.91
2022-08-22T04:17:19.762Z,96211.71
2022-08-22T04:20:11.471Z,96210.85
2022-08-22T04:22:47.067Z,96203.98
2022-08-22T04:25:41.581Z,96197.55
2022-08-22T04:28:34.605Z,96201.63
2022-08-22T04:34:06.576Z,96204.96
2022-08-22T04:36:50.197Z,96201.15
2022-08-22T04:39:53.970Z,96202.38
2022-08-22T04:42:33.452Z,96207.36
2022-08-22T04:45:10.489Z,96211.57
2022-08-22T04:47:46.002Z,96216.41
2022-08-22T04:50:29.130Z,96217.66
2022-08-22T04:52:55.909Z,96216.52
2022-08-22T04:55:53.459Z,96221.40
2022-08-22T04:58:59.236Z,96224.26
2022-08-22T05:01:59.472Z,96230.21
2022-08-22T05:04:39.207Z,96231.86
2022-08-22T05:07:22.894Z,96231.06
2022-08-22T05:09:59.305Z,96237.92
2022-08-22T05:12:33.357Z,96239.52
2022-08-22T05:15:27.789Z,96237.63
2022-08-22T05:18:02.410Z,96242.45
2022-08-22T05:20:44.275Z,96244.77
2022-08-22T05:23:30.558Z,96242.71
2022-08-22T05:28:52.553Z,96242.38
2022-08-22T05:31:28.508Z,96240.48
2022-08-22T05:37:03.050Z,96244.20
2022-08-22T05:39:31.630Z,96243.27
2022-08-22T05:42:03.158Z,96249.92
2022-08-22T05:44:37.424Z,96258.20
2022-08-22T05:47:15.635Z,96255.84
2022-08-22T05:50:00.548Z,96249.70
2022-08-22T05:52:52.441Z,96243.73
2022-08-22T05:55:25.798Z,96248.15
2022-08-22T05:58:19.173Z,96247.76
2022-08-22T06:01:19.807Z,96247.91
2022-08-22T06:04:01.570Z,96246.45
2022-08-22T06:06:50.735Z,96249.45
2022-08-22T06:09:23.489Z,96255.60
2022-08-22T06:12:05.781Z,96259.93
2022-08-22T06:15:12.346Z,96262.96
2022-08-22T06:17:54.184Z,96258.61
2022-08-22T06:20:47.393Z,96255.96
2022-08-22T06:23:25.330Z,96254.40
2022-08-22T06:25:53.891Z,96252.88
2022-08-22T06:28:25.503Z,96253.14
2022-08-22T06:31:03.727Z,96253.13
2022-08-22T06:33:38.277Z,96254.87
2022-08-22T06:36:33.328Z,96259.81
2022-08-22T06:39:20.094Z,96264.09
2022-08-22T06:41:59.312Z,96264.11
2022-08-22T06:44:39.106Z,96262.84
2022-08-22T06:47:17.852Z,96264.94
2022-08-22T06:49:49.497Z,96267.54
2022-08-22T06:52:36.880Z,96271.78
2022-08-22T06:55:07.788Z,96271.93
2022-08-22T06:57:43.207Z,96269.38
2022-08-22T07:03:28.623Z,96266.23
2022-08-22T07:05:57.506Z,96261.36
2022-08-22T07:08:30.829Z,96264.45
2022-08-22T07:11:31.333Z,96270.83
2022-08-22T07:14:07.390Z,96272.98
2022-08-22T07:16:56.455Z,96270.69
2022-08-22T07:19:47.903Z,96273.16
2022-08-22T07:22:32.728Z,96277.96
2022-08-22T07:25:12.000Z,96280.70
2022-08-22T07:28:00.981Z,96280.79
2022-08-22T07:30:45.631Z,96281.20
2022-08-22T07:33:48.048Z,96277.52
2022-08-22T07:36:36.993Z,96279.74
2022-08-22T07:39:23.741Z,96278.90
2022-08-22T07:44:55.279Z,96274.70
2022-08-22T07:50:18.724Z,96275.50
2022-08-22T07:53:07.308Z,96273.69
2022-08-22T07:55:42.183Z,96276.63
2022-08-22T07:58:18.693Z,96278.09
2022-08-22T08:00:48.369Z,96279.37
2022-08-22T08:03:16.802Z,96272.55
2022-08-22T08:06:16.698Z,96268.88
2022-08-22T08:08:45.067Z,96268.48
2022-08-22T08:11:18.352Z,96264.21
2022-08-22T08:13:51.383Z,96260.23
2022-08-22T08:16:22.953Z,96261.55
2022-08-22T08:18:56.182Z,96259.30
2022-08-22T08:21:45.960Z,96260.52
2022-08-22T08:24:22.065Z,96262.67
2022-08-22T08:27:13.376Z,96260.38
2022-08-22T08:29:53.516Z,96259.20
2022-08-22T08:32:27.734Z,96257.86
2022-08-22T08:34:54.690Z,96255.04
2022-08-22T08:37:26.852Z,96256.83
2022-08-22T08:40:07.588Z,96258.11
2022-08-22T08:43:10.600Z,96255.14
2022-08-22T08:45:59.241Z,96257.03
2022-08-22T08:49:08.990Z,96254.58
2022-08-22T08:51:51.738Z,96257.78
2022-08-22T08:54:51.277Z,96254.37
2022-08-22T08:58:06.733Z,96255.35
2022-08-22T09:00:43.792Z,96256.05
2022-08-22T09:03:15.441Z,96254.91
2022-08-22T09:05:58.054Z,96253.66
2022-08-22T09:08:52.655Z,96253.96
2022-08-22T09:12:05.571Z,96253.87
2022-08-22T09:14:53.515Z,96255.14
2022-08-22T09:17:50.312Z,96250.45
2022-08-22T09:20:53.271Z,96249.61
2022-08-22T09:23:37.181Z,96246.73
2022-08-22T09:26:27.918Z,96247.16
2022-08-22T09:29:10.262Z,96245.54
2022-08-22T09:32:13.231Z,96244.19
2022-08-22T09:34:57.031Z,96236.34
2022-08-22T09:37:57.970Z,96241.95
2022-08-22T09:40:35.212Z,96238.70
2022-08-22T09:43:13.727Z,96236.45
2022-08-22T09:46:04.286Z,96235.70
2022-08-22T09:49:11.775Z,96228.00
2022-08-22T09:52:15.128Z,96229.27
2022-08-22T09:55:08.590Z,96220.70
2022-08-22T09:57:55.004Z,96220.86
2022-08-22T10:00:57.957Z,96214.93
2022-08-22T10:04:08.651Z,96216.02
2022-08-22T10:06:59.830Z,96215.84
2022-08-22T10:09:56.759Z,96211.70
2022-08-22T10:13:13.310Z,96207.84
2022-08-22T10:15:59.884Z,96207.43
2022-08-22T10:19:02.670Z,96212.14
2022-08-22T10:22:05.373Z,96215.43
2022-08-22T10:25:16.332Z,96218.10
2022-08-22T10:28:03.459Z,96212.36
2022-08-22T10:30:38.300Z,96216.63
2022-08-22T10:33:40.106Z,96217.64
2022-08-22T10:36:21.338Z,96216.27
2022-08-22T10:38:56.866Z,96211.91
2022-08-22T10:41:59.622Z,96210.41
2022-08-22T10:44:48.544Z,96208.05
2022-08-22T10:47:21.669Z,96206.63
2022-08-22T10:50:11.569Z,96199.85
2022-08-22T10:52:56.847Z,96203.24
2022-08-22T10:55:28.551Z,96201.35
2022-08-22T10:58:28.425Z,96202.09
2022-08-22T11:01:15.125Z,96198.64
2022-08-22T11:04:07.148Z,96194.63
2022-08-22T11:09:43.584Z,96195.91
2022-08-22T11:12:34.986Z,96194.11
2022-08-22T11:15:28.489Z,96194.06
2022-08-22T11:18:20.729Z,96191.19
2022-08-22T11:21:18.552Z,96188.31
2022-08-22T11:24:17.267Z,96188.63
2022-08-22T11:27:40.127Z,96190.73
2022-08-22T11:30:45.844Z,96185.45
2022-08-22T11:33:46.397Z,96182.84
2022-08-22T11:36:51.297Z,96177.85
2022-08-22T11:39:33.913Z,96179.59
2022-08-22T11:42:11.830Z,96180.88
2022-08-22T11:45:01.041Z,96174.62
2022-08-22T11:47:33.234Z,96163.79
2022-08-22T11:50:23.799Z,96164.30
2022-08-22T11:53:10.780Z,96155.23
2022-08-22T11:55:59.650Z,96152.44
2022-08-22T11:58:55.161Z,96153.51
2022-08-22T12:02:20.736Z,96151.23
2022-08-22T12:04:54.991Z,96148.38
2022-08-22T12:07:29.506Z,96143.54
2022-08-22T12:10:13.749Z,96136.59
2022-08-22T12:13:05.257Z,96138.96
2022-08-22T12:15:56.671Z,96139.40
2022-08-22T12:18:43.785Z,96140.53
2022-08-22T12:21:29.718Z,96138.89
2022-08-22T12:24:48.327Z,96134.75
2022-08-22T12:27:29.662Z,96133.02
2022-08-22T12:30:20.373Z,96129.25
2022-08-22T12:33:24.420Z,96129.79
2022-08-22T12:36:18.443Z,96127.01
2022-08-22T12:39:03.476Z,96129.65
2022-08-22T12:42:04.113Z,96131.02
2022-08-22T12:45:20.560Z,96132.36
2022-08-22T12:48:07.456Z,96136.23
2022-08-22T12:50:49.770Z,96137.85
2022-08-22T12:56:47.481Z,96144.61
2022-08-22T12:59:14.770Z,96146.27
2022-08-22T13:01:49.114Z,96145.27
2022-08-22T13:04:43.721Z,96140.64
2022-08-22T13:07:46.185Z,96144.86
2022-08-22T13:10:50.728Z,96146.30
2022-08-22T13:13:37.246Z,96142.67
2022-08-22T13:16:12.732Z,96137.44
2022-08-22T13:19:07.624Z,96137.34
2022-08-22T13:21:41.972Z,96132.48
2022-08-22T13:24:16.821Z,96134.91
2022-08-22T13:27:02.296Z,96137.23
2022-08-22T13:29:52.407Z,96139.35
2022-08-22T13:32:28.433Z,96137.75
2022-08-22T13:34:57.898Z,96143.11
2022-08-22T13:37:29.782Z,96153.13
2022-08-22T13:40:06.083Z,96155.63
2022-08-22T13:42:43.398Z,96158.23
2022-08-22T13:45:25.256Z,96163.04
2022-08-22T13:47:59.443Z,96156.41
2022-08-22T13:50:37.536Z,96158.84
2022-08-22T13:53:35.343Z,96165.11
2022-08-22T13:56:15.316Z,96166.66
2022-08-22T13:59:04.521Z,96159.67
2022-08-22T14:01:55.710Z,96158.95
2022-08-22T14:04:36.033Z,96154.17
2022-08-22T14:07:31.399Z,96150.98
2022-08-22T14:10:05.041Z,96153.35
2022-08-22T14:12:50.135Z,96158.15
2022-08-22T14:15:33.904Z,96164.95
2022-08-22T14:18:31.560Z,96165.94
2022-08-22T14:21:17.555Z,96167.10
2022-08-22T14:23:49.575Z,96161.08
2022-08-22T14:26:32.965Z,96161.59
2022-08-22T14:29:17.082Z,96159.67
2022-08-22T14:31:59.116Z,96155.06
2022-08-22T14:34:28.629Z,96147.34
2022-08-22T14:37:04.537Z,96142.05
2022-08-22T14:39:56.657Z,96144.54
2022-08-22T14:42:50.469Z,96143.02
2022-08-22T14:45:25.744Z,96142.27
2022-08-22T14:48:30.214Z,96136.45
2022-08-22T14:51:17.111Z,96137.97
2022-08-22T14:53:48.399Z,96138.15
2022-08-22T14:56:23.695Z,96142.92
2022-08-22T14:59:04.412Z,96136.61
2022-08-22T15:01:48.815Z,96136.33
2022-08-22T15:04:46.899Z,96139.01
2022-08-22T15:07:24.401Z,96144.38
2022-08-22T15:10:01.010Z,96142.88
2022-08-22T15:12:53.465Z,96145.98
2022-08-22T15:15:55.034Z,96139.19
2022-08-22T15:18:22.848Z,96146.71
2022-08-22T15:21:09.946Z,96151.73
2022-08-22T15:23:44.978Z,96155.89
2022-08-22T15:26:42.453Z,96159.13
2022-08-22T15:29:30.955Z,96163.64
2022-08-22T15:32:02.261Z,96172.39
2022-08-22T15:34:29.224Z,96182.52
2022-08-22T15:37:01.407Z,96185.82
2022-08-22T15:40:11.944Z,96198.52
2022-08-22T15:42:45.157Z,96204.65
2022-08-22T15:45:24.472Z,96207.80
2022-08-22T15:47:52.601Z,96206.85
2022-08-22T15:50:53.497Z,96203.77
2022-08-22T15:53:30.473Z,96200.67
2022-08-22T15:56:06.331Z,96196.04
2022-08-22T15:58:36.689Z,96198.66
2022-08-22T16:01:18.966Z,96193.80
2022-08-22T16:03:59.617Z,96195.02
2022-08-22T16:06:44.540Z,96196.41
2022-08-22T16:16:52.607Z,96222.13
2022-08-22T16:19:24.758Z,96226.62
2022-08-22T16:21:54.998Z,96228.81
2022-08-22T16:24:24.002Z,96235.16
2022-08-22T16:26:53.983Z,96235.77
2022-08-22T16:29:41.683Z,96239.73
2022-08-22T16:32:12.033Z,96247.78
2022-08-22T16:34:46.014Z,96246.90
2022-08-22T16:37:22.141Z,96247.66
2022-08-22T16:40:14.570Z,96246.14
2022-08-22T16:43:15.053Z,96250.25
2022-08-22T16:45:45.742Z,96248.67
2022-08-22T16:48:31.204Z,96243.05
2022-08-22T16:51:08.689Z,96236.08
2022-08-22T16:53:46.089Z,96237.95
2022-08-22T16:56:34.854Z,96245.98
2022-08-22T16:59:22.349Z,96248.19
2022-08-22T17:02:17.432Z,96258.69
2022-08-22T17:05:42.902Z,96269.92
2022-08-22T17:08:19.368Z,96270.34
2022-08-22T17:11:12.660Z,96278.48
2022-08-22T17:14:11.978Z,96274.75
2022-08-22T17:17:05.479Z,96285.38
2022-08-22T17:19:43.285Z,96291.35
2022-08-22T17:22:46.849Z,96302.86
2022-08-22T17:25:33.822Z,96305.21
2022-08-22T17:28:40.256Z,96318.52
2022-08-22T17:31:26.074Z,96321.55
2022-08-22T17:34:17.057Z,96321.79
2022-08-22T17:37:06.704Z,96320.14
2022-08-22T17:39:55.645Z,96325.23
2022-08-22T17:42:58.775Z,96322.82
2022-08-22T17:45:39.066Z,96323.23
2022-08-22T17:48:29.118Z,96326.80
2022-08-22T17:51:12.580Z,96331.69
2022-08-22T17:53:52.890Z,96340.45
2022-08-22T17:56:44.453Z,96349.01
2022-08-22T17:59:20.338Z,96346.25
2022-08-22T18:01:59.171Z,96346.44
2022-08-22T18:04:45.639Z,96336.27
2022-08-22T18:07:40.270Z,96336.80
2022-08-22T18:10:33.760Z,96330.77
2022-08-22T18:13:13.751Z,96327.00
2022-08-22T18:16:07.272Z,96322.29
2022-08-22T18:19:42.393Z,96316.62
2022-08-22T18:22:29.422Z,96318.30
2022-08-22T18:25:21.660Z,96318.02
2022-08-22T18:28:06.739Z,96315.55
2022-08-22T18:31:11.661Z,96312.79
2022-08-22T18:33:52.039Z,96316.11
2022-08-22T18:36:30.975Z,96308.13
2022-08-22T18:39:07.846Z,96307.02
2022-08-22T18:42:08.089Z,96317.17
2022-08-22T18:44:42.305Z,96325.06
2022-08-22T18:47:32.918Z,96327.40
2022-08-22T18:50:22.808Z,96335.08
2022-08-22T18:52:57.449Z,96336.66
2022-08-22T18:55:32.074Z,96342.18
2022-08-22T18:58:54.144Z,96351.66
2022-08-22T19:02:09.904Z,96351.83
2022-08-22T19:04:53.864Z,96356.92
2022-08-22T19:07:33.448Z,96353.99
2022-08-22T19:10:36.731Z,96358.34
2022-08-22T19:13:32.426Z,96369.40
2022-08-22T19:16:25.396Z,96378.38
2022-08-22T19:18:58.855Z,96390.16
2022-08-22T19:21:54.049Z,96397.20
2022-08-22T19:25:09.129Z,96396.34
2022-08-22T19:28:02.825Z,96388.98
2022-08-22T19:30:34.693Z,96392.98
2022-08-22T19:33:08.562Z,96395.83
2022-08-22T19:36:04.061Z,96398.98
2022-08-22T19:38:51.245Z,96400.71
2022-08-22T19:41:39.888Z,96409.53
2022-08-22T19:44:27.575Z,96419.38
2022-08-22T19:47:30.471Z,96420.98
2022-08-22T19:50:23.855Z,96419.07
2022-08-22T19:53:18.676Z,96420.36
2022-08-22T19:56:09.789Z,96425.17
2022-08-22T19:59:02.200Z,96415.96
2022-08-22T20:05:19.680Z,96429.09
2022-08-22T20:08:19.564Z,96431.63
2022-08-22T20:11:27.047Z,96441.04
2022-08-22T20:14:31.111Z,96448.86
2022-08-22T20:17:06.642Z,96452.30
2022-08-22T20:19:42.481Z,96456.58
2022-08-22T20:22:27.928Z,96459.27
2022-08-22T20:25:42.979Z,96463.95
2022-08-22T20:28:36.702Z,96465.21
2022-08-22T20:31:25.430Z,96466.58
2022-08-22T20:34:08.274Z,96464.00
2022-08-22T20:36:43.527Z,96469.61
2022-08-22T20:39:21.540Z,96470.48
2022-08-22T20:45:12.090Z,96480.70
2022-08-22T20:48:02.182Z,96476.81
2022-08-22T20:50:51.832Z,96474.61
2022-08-22T20:53:23.914Z,96472.35
2022-08-22T20:55:57.489Z,96472.84
2022-08-22T20:58:33.724Z,96475.04
2022-08-22T21:01:05.062Z,96467.63
2022-08-22T21:03:42.565Z,96464.29
2022-08-22T21:06:15.442Z,96462.64
2022-08-22T21:08:46.200Z,96465.83
2022-08-22T21:11:41.040Z,96466.53
2022-08-22T21:14:28.491Z,96469.85
2022-08-22T21:16:56.661Z,96469.67
2022-08-22T21:19:29.400Z,96468.90
2022-08-22T21:22:27.513Z,96466.16
2022-08-22T21:24:59.239Z,96467.34
2022-08-22T21:27:33.525Z,96465.90
2022-08-22T21:30:18.957Z,96467.39
2022-08-22T21:32:53.710Z,96466.60
2022-08-22T21:35:36.582Z,96461.42
2022-08-22T21:38:06.045Z,96455.30
2022-08-22T21:40:39.994Z,96451.10
2022-08-22T21:43:14.328Z,96452.95
2022-08-22T21:45:50.922Z,96458.56
2022-08-22T21:48:44.117Z,96461.61
2022-08-22T21:51:38.916Z,96456.68
2022-08-22T21:54:28.290Z,96452.71
2022-08-22T21:57:16.382Z,96450.66
2022-08-22T21:59:51.955Z,96448.55
2022-08-22T22:02:36.526Z,96447.39
2022-08-22T22:05:14.484Z,96443.37
2022-08-22T22:07:46.866Z,96436.19
2022-08-22T22:10:21.261Z,96434.36
2022-08-22T22:12:53.908Z,96428.49
2022-08-22T22:15:37.201Z,96435.83
2022-08-22T22:18:06.101Z,96436.88
2022-08-22T22:20:34.541Z,96429.66
2022-08-22T22:23:06.306Z,96431.09
2022-08-22T22:25:40.536Z,96433.84
2022-08-22T22:28:23.171Z,96439.21
2022-08-22T22:30:54.130Z,96441.71
2022-08-22T22:33:29.025Z,96446.23
2022-08-22T22:36:03.038Z,96446.58
2022-08-22T22:38:31.415Z,96445.77
2022-08-22T22:41:00.492Z,96444.13
2022-08-22T22:43:29.239Z,96444.18
2022-08-22T22:45:59.069Z,96448.34
2022-08-22T22:48:29.907Z,96450.03
2022-08-22T22:50:58.167Z,96449.70
2022-08-22T22:53:38.323Z,96450.54
2022-08-22T22:56:18.241Z,96453.38
2022-08-22T22:58:59.254Z,96447.70
2022-08-22T23:01:29.254Z,96447.27
2022-08-22T23:04:03.263Z,96443.95
2022-08-22T23:06:34.836Z,96445.48
2022-08-22T23:09:03.888Z,96445.61
2022-08-22T23:11:32.389Z,96444.08
2022-08-22T23:14:01.930Z,96446.79
2022-08-22T23:16:36.504Z,96448.07
2022-08-22T23:19:16.679Z,96443.84
2022-08-22T23:21:46.354Z,96439.36
2022-08-22T23:24:14.651Z,96442.63
2022-08-22T23:26:43.782Z,96444.52
2022-08-22T23:29:13.952Z,96442.13
2022-08-22T23:31:56.662Z,96436.35
2022-08-22T23:34:39.789Z,96434.63
2022-08-22T23:37:10.962Z,96439.56
2022-08-22T23:39:39.922Z,96446.03
2022-08-22T23:42:09.895Z,96447.80
2022-08-22T23:44:40.709Z,96449.83
2022-08-22T23:47:11.695Z,96456.08
2022-08-22T23:50:05.763Z,96451.99
2022-08-22T23:52:37.248Z,96442.83
2022-08-22T23:55:08.330Z,96444.49
2022-08-22T23:57:36.472Z,96447.27
